sensor_id;sensor_type;location;lat;lon;timestamp;temperature;humidity
43520;DHT22;46848;51.980;5.918;2023-02-08T00:01:49;3.80;69.70
43520;DHT22;46848;51.980;5.918;2023-02-08T00:04:15;3.80;69.70
43520;DHT22;46848;51.980;5.918;2023-02-08T00:06:40;3.80;69.50
43520;DHT22;46848;51.980;5.918;2023-02-08T00:09:06;3.80;69.60
43520;DHT22;46848;51.980;5.918;2023-02-08T00:11:33;3.80;69.70
43520;DHT22;46848;51.980;5.918;2023-02-08T00:13:58;3.80;69.70
43520;DHT22;46848;51.980;5.918;2023-02-08T00:16:24;3.80;69.70
43520;DHT22;46848;51.980;5.918;2023-02-08T00:18:49;3.80;69.30
43520;DHT22;46848;51.980;5.918;2023-02-08T00:21:16;3.70;69.60
43520;DHT22;46848;51.980;5.918;2023-02-08T00:23:42;3.70;69.80
43520;DHT22;46848;51.980;5.918;2023-02-08T00:26:09;3.70;69.80
43520;DHT22;46848;51.980;5.918;2023-02-08T00:28:35;3.70;70.00
43520;DHT22;46848;51.980;5.918;2023-02-08T00:31:01;3.70;69.90
43520;DHT22;46848;51.980;5.918;2023-02-08T00:33:26;3.70;70.00
43520;DHT22;46848;51.980;5.918;2023-02-08T00:36:01;3.70;70.00
43520;DHT22;46848;51.980;5.918;2023-02-08T00:38:27;3.70;69.80
43520;DHT22;46848;51.980;5.918;2023-02-08T00:40:52;3.70;69.90
43520;DHT22;46848;51.980;5.918;2023-02-08T00:43:18;3.60;69.90
43520;DHT22;46848;51.980;5.918;2023-02-08T00:45:44;3.60;69.70
43520;DHT22;46848;51.980;5.918;2023-02-08T00:48:09;3.60;69.50
43520;DHT22;46848;51.980;5.918;2023-02-08T00:50:35;3.50;69.50
43520;DHT22;46848;51.980;5.918;2023-02-08T00:53:00;3.40;69.60
43520;DHT22;46848;51.980;5.918;2023-02-08T00:55:26;3.40;70.10
43520;DHT22;46848;51.980;5.918;2023-02-08T00:57:51;3.40;70.80
43520;DHT22;46848;51.980;5.918;2023-02-08T01:00:17;3.40;70.20
43520;DHT22;46848;51.980;5.918;2023-02-08T01:02:43;3.40;70.10
43520;DHT22;46848;51.980;5.918;2023-02-08T01:05:09;3.40;70.00
43520;DHT22;46848;51.980;5.918;2023-02-08T01:07:41;3.40;70.30
43520;DHT22;46848;51.980;5.918;2023-02-08T01:10:24;3.40;70.40
43520;DHT22;46848;51.980;5.918;2023-02-08T01:12:50;3.40;70.10
43520;DHT22;46848;51.980;5.918;2023-02-08T01:15:15;3.30;70.20
43520;DHT22;46848;51.980;5.918;2023-02-08T01:17:41;3.40;70.30
43520;DHT22;46848;51.980;5.918;2023-02-08T01:20:07;3.40;70.50
43520;DHT22;46848;51.980;5.918;2023-02-08T01:22:32;3.30;70.50
43520;DHT22;46848;51.980;5.918;2023-02-08T01:24:58;3.40;70.50
43520;DHT22;46848;51.980;5.918;2023-02-08T01:27:25;3.40;70.50
43520;DHT22;46848;51.980;5.918;2023-02-08T01:29:51;3.30;70.50
43520;DHT22;46848;51.980;5.918;2023-02-08T01:32:17;3.30;70.60
43520;DHT22;46848;51.980;5.918;2023-02-08T01:34:42;3.30;70.00
43520;DHT22;46848;51.980;5.918;2023-02-08T01:37:08;3.20;70.10
43520;DHT22;46848;51.980;5.918;2023-02-08T01:39:33;3.10;70.20
43520;DHT22;46848;51.980;5.918;2023-02-08T01:41:59;3.10;70.20
43520;DHT22;46848;51.980;5.918;2023-02-08T01:47:28;3.10;70.80
43520;DHT22;46848;51.980;5.918;2023-02-08T01:49:54;3.10;70.80
43520;DHT22;46848;51.980;5.918;2023-02-08T01:52:23;3.10;70.80
43520;DHT22;46848;51.980;5.918;2023-02-08T01:54:56;3.10;70.90
43520;DHT22;46848;51.980;5.918;2023-02-08T01:57:24;3.10;70.90
43520;DHT22;46848;51.980;5.918;2023-02-08T01:59:58;3.10;71.00
43520;DHT22;46848;51.980;5.918;2023-02-08T02:02:25;3.10;71.00
43520;DHT22;46848;51.980;5.918;2023-02-08T02:04:51;3.10;70.60
43520;DHT22;46848;51.980;5.918;2023-02-08T02:07:18;3.10;70.90
43520;DHT22;46848;51.980;5.918;2023-02-08T02:09:52;3.00;71.00
43520;DHT22;46848;51.980;5.918;2023-02-08T02:12:20;3.10;71.00
43520;DHT22;46848;51.980;5.918;2023-02-08T02:14:46;3.00;71.10
43520;DHT22;46848;51.980;5.918;2023-02-08T02:17:14;3.00;71.00
43520;DHT22;46848;51.980;5.918;2023-02-08T02:28:15;2.90;70.80
43520;DHT22;46848;51.980;5.918;2023-02-08T02:34:39;2.80;70.90
43520;DHT22;46848;51.980;5.918;2023-02-08T02:37:00;2.80;70.80
43520;DHT22;46848;51.980;5.918;2023-02-08T02:48:37;2.80;71.20
43520;DHT22;46848;51.980;5.918;2023-02-08T02:51:11;2.80;71.30
43520;DHT22;46848;51.980;5.918;2023-02-08T02:54:10;2.80;71.20
43520;DHT22;46848;51.980;5.918;2023-02-08T02:56:40;2.70;71.10
43520;DHT22;46848;51.980;5.918;2023-02-08T02:59:09;2.70;71.40
43520;DHT22;46848;51.980;5.918;2023-02-08T03:01:37;2.70;71.40
43520;DHT22;46848;51.980;5.918;2023-02-08T03:12:29;2.80;71.40
43520;DHT22;46848;51.980;5.918;2023-02-08T03:20:31;2.70;71.40
43520;DHT22;46848;51.980;5.918;2023-02-08T03:23:01;2.70;71.40
43520;DHT22;46848;51.980;5.918;2023-02-08T03:25:49;2.70;71.30
43520;DHT22;46848;51.980;5.918;2023-02-08T03:28:32;2.60;71.60
43520;DHT22;46848;51.980;5.918;2023-02-08T03:34:22;2.60;71.30
43520;DHT22;46848;51.980;5.918;2023-02-08T03:36:50;2.60;71.50
43520;DHT22;46848;51.980;5.918;2023-02-08T03:39:20;2.60;71.50
43520;DHT22;46848;51.980;5.918;2023-02-08T03:41:50;2.60;71.40
43520;DHT22;46848;51.980;5.918;2023-02-08T03:44:28;2.60;71.50
43520;DHT22;46848;51.980;5.918;2023-02-08T03:47:00;2.60;71.70
43520;DHT22;46848;51.980;5.918;2023-02-08T03:49:30;2.60;71.70
43520;DHT22;46848;51.980;5.918;2023-02-08T03:52:01;2.60;71.70
43520;DHT22;46848;51.980;5.918;2023-02-08T03:54:30;2.60;71.50
43520;DHT22;46848;51.980;5.918;2023-02-08T03:59:28;2.60;71.50
43520;DHT22;46848;51.980;5.918;2023-02-08T04:02:02;2.60;71.60
43520;DHT22;46848;51.980;5.918;2023-02-08T04:04:34;2.60;71.30
43520;DHT22;46848;51.980;5.918;2023-02-08T04:07:01;2.50;71.40
43520;DHT22;46848;51.980;5.918;2023-02-08T04:09:26;2.50;71.40
43520;DHT22;46848;51.980;5.918;2023-02-08T04:11:52;2.60;71.40
43520;DHT22;46848;51.980;5.918;2023-02-08T04:14:18;2.50;71.10
43520;DHT22;46848;51.980;5.918;2023-02-08T04:16:43;2.50;71.40
43520;DHT22;46848;51.980;5.918;2023-02-08T04:19:09;2.50;71.30
43520;DHT22;46848;51.980;5.918;2023-02-08T04:21:34;2.60;71.50
43520;DHT22;46848;51.980;5.918;2023-02-08T04:24:00;2.60;71.60
43520;DHT22;46848;51.980;5.918;2023-02-08T04:26:26;2.60;71.50
43520;DHT22;46848;51.980;5.918;2023-02-08T04:28:51;2.60;71.50
43520;DHT22;46848;51.980;5.918;2023-02-08T04:31:17;2.60;71.40
43520;DHT22;46848;51.980;5.918;2023-02-08T04:33:43;2.50;71.30
43520;DHT22;46848;51.980;5.918;2023-02-08T04:36:08;2.50;71.30
43520;DHT22;46848;51.980;5.918;2023-02-08T04:38:34;2.60;71.20
43520;DHT22;46848;51.980;5.918;2023-02-08T04:41:00;2.50;71.00
43520;DHT22;46848;51.980;5.918;2023-02-08T04:43:25;2.50;70.70
43520;DHT22;46848;51.980;5.918;2023-02-08T04:45:51;2.40;70.90
43520;DHT22;46848;51.980;5.918;2023-02-08T04:48:18;2.30;71.00
43520;DHT22;46848;51.980;5.918;2023-02-08T04:50:43;2.40;71.10
43520;DHT22;46848;51.980;5.918;2023-02-08T04:53:09;2.40;71.00
43520;DHT22;46848;51.980;5.918;2023-02-08T04:55:34;2.40;70.90
43520;DHT22;46848;51.980;5.918;2023-02-08T04:58:00;2.40;71.20
43520;DHT22;46848;51.980;5.918;2023-02-08T05:00:26;2.40;71.20
43520;DHT22;46848;51.980;5.918;2023-02-08T05:02:53;2.40;71.20
43520;DHT22;46848;51.980;5.918;2023-02-08T05:05:19;2.40;71.10
43520;DHT22;46848;51.980;5.918;2023-02-08T05:07:45;2.40;70.80
43520;DHT22;46848;51.980;5.918;2023-02-08T05:10:10;2.40;71.00
43520;DHT22;46848;51.980;5.918;2023-02-08T05:12:36;2.30;70.90
43520;DHT22;46848;51.980;5.918;2023-02-08T05:15:01;2.30;71.10
43520;DHT22;46848;51.980;5.918;2023-02-08T05:17:27;2.30;71.20
43520;DHT22;46848;51.980;5.918;2023-02-08T05:19:52;2.30;70.30
43520;DHT22;46848;51.980;5.918;2023-02-08T05:22:18;2.20;70.40
43520;DHT22;46848;51.980;5.918;2023-02-08T05:24:44;2.20;70.30
43520;DHT22;46848;51.980;5.918;2023-02-08T05:27:09;2.10;70.80
43520;DHT22;46848;51.980;5.918;2023-02-08T05:29:35;2.10;70.90
43520;DHT22;46848;51.980;5.918;2023-02-08T05:32:00;2.10;70.80
43520;DHT22;46848;51.980;5.918;2023-02-08T05:34:26;2.10;70.80
43520;DHT22;46848;51.980;5.918;2023-02-08T05:36:51;2.00;71.00
43520;DHT22;46848;51.980;5.918;2023-02-08T05:39:17;2.00;71.00
43520;DHT22;46848;51.980;5.918;2023-02-08T05:41:43;2.00;70.90
43520;DHT22;46848;51.980;5.918;2023-02-08T05:44:08;2.00;71.00
43520;DHT22;46848;51.980;5.918;2023-02-08T05:46:34;1.90;70.90
43520;DHT22;46848;51.980;5.918;2023-02-08T05:48:59;1.90;71.40
43520;DHT22;46848;51.980;5.918;2023-02-08T05:51:25;1.80;71.40
43520;DHT22;46848;51.980;5.918;2023-02-08T05:53:50;1.80;71.50
43520;DHT22;46848;51.980;5.918;2023-02-08T05:56:16;1.80;71.70
43520;DHT22;46848;51.980;5.918;2023-02-08T05:58:41;1.80;72.00
43520;DHT22;46848;51.980;5.918;2023-02-08T06:01:11;1.80;72.00
43520;DHT22;46848;51.980;5.918;2023-02-08T06:03:38;1.80;72.20
43520;DHT22;46848;51.980;5.918;2023-02-08T06:06:05;1.70;72.10
43520;DHT22;46848;51.980;5.918;2023-02-08T06:08:31;1.70;72.90
43520;DHT22;46848;51.980;5.918;2023-02-08T06:10:56;1.70;72.50
43520;DHT22;46848;51.980;5.918;2023-02-08T06:13:22;1.70;72.40
43520;DHT22;46848;51.980;5.918;2023-02-08T06:15:48;1.70;72.50
43520;DHT22;46848;51.980;5.918;2023-02-08T06:18:14;1.70;72.60
43520;DHT22;46848;51.980;5.918;2023-02-08T06:20:39;1.70;72.70
43520;DHT22;46848;51.980;5.918;2023-02-08T06:23:05;1.70;72.70
43520;DHT22;46848;51.980;5.918;2023-02-08T06:25:30;1.70;72.70
43520;DHT22;46848;51.980;5.918;2023-02-08T06:27:56;1.70;72.80
43520;DHT22;46848;51.980;5.918;2023-02-08T06:30:22;1.70;72.80
43520;DHT22;46848;51.980;5.918;2023-02-08T06:32:48;1.70;72.70
43520;DHT22;46848;51.980;5.918;2023-02-08T06:35:13;1.70;72.70
43520;DHT22;46848;51.980;5.918;2023-02-08T06:37:39;1.70;72.70
43520;DHT22;46848;51.980;5.918;2023-02-08T06:40:05;1.70;72.80
43520;DHT22;46848;51.980;5.918;2023-02-08T06:42:31;1.70;72.90
43520;DHT22;46848;51.980;5.918;2023-02-08T06:44:57;1.70;73.50
43520;DHT22;46848;51.980;5.918;2023-02-08T06:47:25;1.70;72.90
43520;DHT22;46848;51.980;5.918;2023-02-08T06:49:51;1.70;72.90
43520;DHT22;46848;51.980;5.918;2023-02-08T06:52:18;1.60;72.70
43520;DHT22;46848;51.980;5.918;2023-02-08T06:54:43;1.60;73.00
43520;DHT22;46848;51.980;5.918;2023-02-08T06:57:10;1.60;72.80
43520;DHT22;46848;51.980;5.918;2023-02-08T06:59:40;1.50;72.60
43520;DHT22;46848;51.980;5.918;2023-02-08T07:02:12;1.40;72.70
43520;DHT22;46848;51.980;5.918;2023-02-08T07:04:41;1.50;73.00
43520;DHT22;46848;51.980;5.918;2023-02-08T07:07:07;1.50;72.50
43520;DHT22;46848;51.980;5.918;2023-02-08T07:09:35;1.50;72.90
43520;DHT22;46848;51.980;5.918;2023-02-08T07:12:01;1.60;72.80
43520;DHT22;46848;51.980;5.918;2023-02-08T07:14:30;1.60;72.70
43520;DHT22;46848;51.980;5.918;2023-02-08T07:16:56;1.60;72.40
43520;DHT22;46848;51.980;5.918;2023-02-08T07:19:22;1.70;72.40
43520;DHT22;46848;51.980;5.918;2023-02-08T07:21:47;1.70;72.10
43520;DHT22;46848;51.980;5.918;2023-02-08T07:24:13;1.70;72.30
43520;DHT22;46848;51.980;5.918;2023-02-08T07:26:38;1.70;72.30
43520;DHT22;46848;51.980;5.918;2023-02-08T07:29:04;1.70;71.70
43520;DHT22;46848;51.980;5.918;2023-02-08T07:31:30;1.70;72.10
43520;DHT22;46848;51.980;5.918;2023-02-08T07:33:57;1.70;72.00
43520;DHT22;46848;51.980;5.918;2023-02-08T07:36:23;1.70;71.80
43520;DHT22;46848;51.980;5.918;2023-02-08T07:38:48;1.70;71.90
43520;DHT22;46848;51.980;5.918;2023-02-08T07:41:14;1.70;71.70
43520;DHT22;46848;51.980;5.918;2023-02-08T07:43:40;1.70;71.40
43520;DHT22;46848;51.980;5.918;2023-02-08T07:46:15;1.70;71.50
43520;DHT22;46848;51.980;5.918;2023-02-08T07:48:40;1.80;71.50
43520;DHT22;46848;51.980;5.918;2023-02-08T07:51:07;1.80;71.30
43520;DHT22;46848;51.980;5.918;2023-02-08T07:53:33;1.80;71.40
43520;DHT22;46848;51.980;5.918;2023-02-08T07:55:59;1.90;71.40
43520;DHT22;46848;51.980;5.918;2023-02-08T07:58:25;1.90;70.90
43520;DHT22;46848;51.980;5.918;2023-02-08T08:00:51;1.90;70.50
43520;DHT22;46848;51.980;5.918;2023-02-08T08:03:17;1.80;70.50
43520;DHT22;46848;51.980;5.918;2023-02-08T08:05:43;1.80;71.20
43520;DHT22;46848;51.980;5.918;2023-02-08T08:08:09;1.90;70.40
43520;DHT22;46848;51.980;5.918;2023-02-08T08:10:35;1.90;70.80
43520;DHT22;46848;51.980;5.918;2023-02-08T08:13:01;2.00;70.60
43520;DHT22;46848;51.980;5.918;2023-02-08T08:15:27;2.00;69.80
43520;DHT22;46848;51.980;5.918;2023-02-08T08:17:52;2.00;70.50
43520;DHT22;46848;51.980;5.918;2023-02-08T08:20:18;2.10;70.50
43520;DHT22;46848;51.980;5.918;2023-02-08T08:22:44;2.80;70.40
43520;DHT22;46848;51.980;5.918;2023-02-08T08:25:09;3.70;69.50
43520;DHT22;46848;51.980;5.918;2023-02-08T08:27:35;4.60;66.90
43520;DHT22;46848;51.980;5.918;2023-02-08T08:30:02;5.50;65.50
43520;DHT22;46848;51.980;5.918;2023-02-08T08:32:30;6.30;63.30
43520;DHT22;46848;51.980;5.918;2023-02-08T08:34:55;7.00;60.40
43520;DHT22;46848;51.980;5.918;2023-02-08T08:37:21;7.60;60.10
43520;DHT22;46848;51.980;5.918;2023-02-08T08:39:47;8.20;58.00
43520;DHT22;46848;51.980;5.918;2023-02-08T08:42:12;8.80;58.40
43520;DHT22;46848;51.980;5.918;2023-02-08T08:44:38;9.40;56.90
43520;DHT22;46848;51.980;5.918;2023-02-08T08:47:04;9.90;53.90
43520;DHT22;46848;51.980;5.918;2023-02-08T08:49:29;10.30;54.40
43520;DHT22;46848;51.980;5.918;2023-02-08T08:51:55;10.70;53.50
43520;DHT22;46848;51.980;5.918;2023-02-08T08:54:22;10.90;52.60
43520;DHT22;46848;51.980;5.918;2023-02-08T08:56:47;11.30;53.90
43520;DHT22;46848;51.980;5.918;2023-02-08T08:59:13;11.60;53.00
43520;DHT22;46848;51.980;5.918;2023-02-08T09:01:39;11.90;51.30
43520;DHT22;46848;51.980;5.918;2023-02-08T09:04:09;12.10;52.10
43520;DHT22;46848;51.980;5.918;2023-02-08T09:06:35;12.30;50.90
43520;DHT22;46848;51.980;5.918;2023-02-08T09:09:01;12.50;51.80
43520;DHT22;46848;51.980;5.918;2023-02-08T09:11:27;12.70;52.20
43520;DHT22;46848;51.980;5.918;2023-02-08T09:13:53;12.90;53.20
43520;DHT22;46848;51.980;5.918;2023-02-08T09:16:21;13.30;52.90
43520;DHT22;46848;51.980;5.918;2023-02-08T09:18:47;13.70;52.90
43520;DHT22;46848;51.980;5.918;2023-02-08T09:21:15;13.90;52.20
43520;DHT22;46848;51.980;5.918;2023-02-08T09:23:41;13.90;52.90
43520;DHT22;46848;51.980;5.918;2023-02-08T09:26:09;14.00;55.00
43520;DHT22;46848;51.980;5.918;2023-02-08T09:28:35;14.20;53.50
43520;DHT22;46848;51.980;5.918;2023-02-08T09:31:09;14.10;52.00
43520;DHT22;46848;51.980;5.918;2023-02-08T09:33:34;14.00;53.60
43520;DHT22;46848;51.980;5.918;2023-02-08T09:36:00;13.90;53.70
43520;DHT22;46848;51.980;5.918;2023-02-08T09:38:26;13.80;56.50
43520;DHT22;46848;51.980;5.918;2023-02-08T09:49:25;14.10;56.50
43520;DHT22;46848;51.980;5.918;2023-02-08T09:52:14;14.30;58.20
43520;DHT22;46848;51.980;5.918;2023-02-08T09:54:47;14.40;54.50
43520;DHT22;46848;51.980;5.918;2023-02-08T09:57:23;14.60;58.30
43520;DHT22;46848;51.980;5.918;2023-02-08T10:00:03;15.00;58.90
43520;DHT22;46848;51.980;5.918;2023-02-08T10:02:34;15.20;58.80
43520;DHT22;46848;51.980;5.918;2023-02-08T10:07:31;15.60;59.60
43520;DHT22;46848;51.980;5.918;2023-02-08T10:10:03;15.70;57.90
43520;DHT22;46848;51.980;5.918;2023-02-08T10:15:30;15.80;51.80
43520;DHT22;46848;51.980;5.918;2023-02-08T10:23:54;15.80;62.30
43520;DHT22;46848;51.980;5.918;2023-02-08T10:29:26;15.30;51.30
43520;DHT22;46848;51.980;5.918;2023-02-08T10:32:17;15.00;58.20
43520;DHT22;46848;51.980;5.918;2023-02-08T10:34:51;14.80;53.10
43520;DHT22;46848;51.980;5.918;2023-02-08T10:37:32;14.30;58.80
43520;DHT22;46848;51.980;5.918;2023-02-08T10:40:12;14.30;60.00
43520;DHT22;46848;51.980;5.918;2023-02-08T10:42:39;14.50;64.20
43520;DHT22;46848;51.980;5.918;2023-02-08T10:46:23;14.60;62.80
43520;DHT22;46848;51.980;5.918;2023-02-08T10:51:19;14.50;60.50
43520;DHT22;46848;51.980;5.918;2023-02-08T10:53:45;14.50;60.30
43520;DHT22;46848;51.980;5.918;2023-02-08T10:58:56;14.30;54.60
43520;DHT22;46848;51.980;5.918;2023-02-08T11:01:24;14.00;57.30
43520;DHT22;46848;51.980;5.918;2023-02-08T11:04:04;13.80;53.70
43520;DHT22;46848;51.980;5.918;2023-02-08T11:06:30;13.70;55.40
43520;DHT22;46848;51.980;5.918;2023-02-08T11:08:56;13.60;57.40
43520;DHT22;46848;51.980;5.918;2023-02-08T11:11:24;13.60;56.80
43520;DHT22;46848;51.980;5.918;2023-02-08T11:13:51;13.60;55.60
43520;DHT22;46848;51.980;5.918;2023-02-08T11:16:25;13.70;58.70
43520;DHT22;46848;51.980;5.918;2023-02-08T11:18:53;13.80;58.80
43520;DHT22;46848;51.980;5.918;2023-02-08T11:21:27;13.80;53.10
43520;DHT22;46848;51.980;5.918;2023-02-08T11:23:58;13.50;56.00
43520;DHT22;46848;51.980;5.918;2023-02-08T11:26:36;13.30;50.20
43520;DHT22;46848;51.980;5.918;2023-02-08T11:29:18;13.20;52.80
43520;DHT22;46848;51.980;5.918;2023-02-08T11:32:00;13.10;43.90
43520;DHT22;46848;51.980;5.918;2023-02-08T11:34:35;13.00;52.30
43520;DHT22;46848;51.980;5.918;2023-02-08T11:37:13;13.00;52.30
43520;DHT22;46848;51.980;5.918;2023-02-08T11:39:42;13.00;49.80
43520;DHT22;46848;51.980;5.918;2023-02-08T11:42:18;13.10;53.30
43520;DHT22;46848;51.980;5.918;2023-02-08T11:44:45;13.10;48.20
43520;DHT22;46848;51.980;5.918;2023-02-08T11:47:15;13.10;52.30
43520;DHT22;46848;51.980;5.918;2023-02-08T11:49:43;13.20;50.50
43520;DHT22;46848;51.980;5.918;2023-02-08T11:52:49;13.20;48.90
43520;DHT22;46848;51.980;5.918;2023-02-08T12:00:32;13.00;47.40
43520;DHT22;46848;51.980;5.918;2023-02-08T12:03:04;13.20;48.70
43520;DHT22;46848;51.980;5.918;2023-02-08T12:05:41;13.10;49.70
43520;DHT22;46848;51.980;5.918;2023-02-08T12:08:26;13.20;48.30
43520;DHT22;46848;51.980;5.918;2023-02-08T12:14:02;13.30;47.90
43520;DHT22;46848;51.980;5.918;2023-02-08T12:19:36;13.30;46.60
43520;DHT22;46848;51.980;5.918;2023-02-08T12:22:09;13.40;43.70
43520;DHT22;46848;51.980;5.918;2023-02-08T12:39:10;13.20;40.60
43520;DHT22;46848;51.980;5.918;2023-02-08T12:42:41;12.90;39.10
43520;DHT22;46848;51.980;5.918;2023-02-08T12:48:21;13.10;44.90
43520;DHT22;46848;51.980;5.918;2023-02-08T12:53:51;13.30;42.00
43520;DHT22;46848;51.980;5.918;2023-02-08T12:56:22;13.30;40.70
43520;DHT22;46848;51.980;5.918;2023-02-08T12:58:51;13.30;41.00
43520;DHT22;46848;51.980;5.918;2023-02-08T13:01:24;13.10;42.30
43520;DHT22;46848;51.980;5.918;2023-02-08T13:04:04;13.10;44.00
43520;DHT22;46848;51.980;5.918;2023-02-08T13:06:42;13.20;42.30
43520;DHT22;46848;51.980;5.918;2023-02-08T13:09:34;13.20;42.90
43520;DHT22;46848;51.980;5.918;2023-02-08T13:12:05;13.10;41.90
43520;DHT22;46848;51.980;5.918;2023-02-08T13:14:44;13.10;41.00
43520;DHT22;46848;51.980;5.918;2023-02-08T13:17:37;13.10;41.40
43520;DHT22;46848;51.980;5.918;2023-02-08T13:20:32;13.10;42.60
43520;DHT22;46848;51.980;5.918;2023-02-08T13:23:09;13.10;38.50
43520;DHT22;46848;51.980;5.918;2023-02-08T13:25:39;13.10;41.80
43520;DHT22;46848;51.980;5.918;2023-02-08T13:28:06;13.10;40.40
43520;DHT22;46848;51.980;5.918;2023-02-08T13:30:36;13.00;40.00
43520;DHT22;46848;51.980;5.918;2023-02-08T13:33:13;12.80;39.70
43520;DHT22;46848;51.980;5.918;2023-02-08T13:35:40;12.90;40.50
43520;DHT22;46848;51.980;5.918;2023-02-08T13:38:29;12.90;39.60
43520;DHT22;46848;51.980;5.918;2023-02-08T13:41:13;12.90;39.90
43520;DHT22;46848;51.980;5.918;2023-02-08T13:43:48;13.10;41.40
43520;DHT22;46848;51.980;5.918;2023-02-08T13:46:17;13.20;42.40
43520;DHT22;46848;51.980;5.918;2023-02-08T13:49:03;13.40;43.10
43520;DHT22;46848;51.980;5.918;2023-02-08T13:56:46;13.40;41.30
43520;DHT22;46848;51.980;5.918;2023-02-08T13:59:38;13.40;37.90
43520;DHT22;46848;51.980;5.918;2023-02-08T14:04:44;13.20;40.80
43520;DHT22;46848;51.980;5.918;2023-02-08T14:15:34;13.10;39.60
43520;DHT22;46848;51.980;5.918;2023-02-08T14:18:02;13.00;40.70
43520;DHT22;46848;51.980;5.918;2023-02-08T14:23:21;13.20;41.10
43520;DHT22;46848;51.980;5.918;2023-02-08T14:25:49;13.30;41.00
43520;DHT22;46848;51.980;5.918;2023-02-08T14:28:31;13.30;43.00
43520;DHT22;46848;51.980;5.918;2023-02-08T14:30:58;13.40;42.20
43520;DHT22;46848;51.980;5.918;2023-02-08T14:33:34;13.40;39.50
43520;DHT22;46848;51.980;5.918;2023-02-08T14:36:04;13.30;41.50
43520;DHT22;46848;51.980;5.918;2023-02-08T14:41:01;13.10;41.10
43520;DHT22;46848;51.980;5.918;2023-02-08T14:43:37;13.20;42.40
43520;DHT22;46848;51.980;5.918;2023-02-08T14:51:38;13.10;41.80
43520;DHT22;46848;51.980;5.918;2023-02-08T14:54:16;13.10;41.90
43520;DHT22;46848;51.980;5.918;2023-02-08T14:57:34;13.10;40.10
43520;DHT22;46848;51.980;5.918;2023-02-08T14:59:35;13.00;41.20
43520;DHT22;46848;51.980;5.918;2023-02-08T15:02:13;12.90;42.00
43520;DHT22;46848;51.980;5.918;2023-02-08T15:04:44;12.90;39.60
43520;DHT22;46848;51.980;5.918;2023-02-08T15:07:28;12.70;39.90
43520;DHT22;46848;51.980;5.918;2023-02-08T15:09:56;12.50;40.80
43520;DHT22;46848;51.980;5.918;2023-02-08T15:12:33;12.50;42.10
43520;DHT22;46848;51.980;5.918;2023-02-08T15:15:01;12.60;38.90
43520;DHT22;46848;51.980;5.918;2023-02-08T15:17:42;12.50;40.10
43520;DHT22;46848;51.980;5.918;2023-02-08T15:20:35;12.50;41.10
43520;DHT22;46848;51.980;5.918;2023-02-08T15:23:05;12.40;41.90
43520;DHT22;46848;51.980;5.918;2023-02-08T15:25:33;12.40;43.50
43520;DHT22;46848;51.980;5.918;2023-02-08T15:28:16;12.50;43.30
43520;DHT22;46848;51.980;5.918;2023-02-08T15:30:42;12.40;41.10
43520;DHT22;46848;51.980;5.918;2023-02-08T15:33:14;12.30;42.30
43520;DHT22;46848;51.980;5.918;2023-02-08T15:35:43;12.20;42.20
43520;DHT22;46848;51.980;5.918;2023-02-08T15:38:20;12.10;43.00
43520;DHT22;46848;51.980;5.918;2023-02-08T15:41:29;12.10;41.40
43520;DHT22;46848;51.980;5.918;2023-02-08T15:44:24;12.00;40.20
43520;DHT22;46848;51.980;5.918;2023-02-08T15:46:51;11.80;42.60
43520;DHT22;46848;51.980;5.918;2023-02-08T15:49:40;11.80;42.80
43520;DHT22;46848;51.980;5.918;2023-02-08T15:52:13;11.70;41.00
43520;DHT22;46848;51.980;5.918;2023-02-08T15:54:40;11.60;42.60
43520;DHT22;46848;51.980;5.918;2023-02-08T15:57:54;11.40;41.90
43520;DHT22;46848;51.980;5.918;2023-02-08T15:59:55;11.20;41.10
43520;DHT22;46848;51.980;5.918;2023-02-08T16:02:40;11.10;42.70
43520;DHT22;46848;51.980;5.918;2023-02-08T16:05:19;11.00;39.50
43520;DHT22;46848;51.980;5.918;2023-02-08T16:07:46;10.80;43.70
43520;DHT22;46848;51.980;5.918;2023-02-08T16:10:39;10.80;44.80
43520;DHT22;46848;51.980;5.918;2023-02-08T16:13:20;10.70;40.70
43520;DHT22;46848;51.980;5.918;2023-02-08T16:15:48;10.50;43.50
43520;DHT22;46848;51.980;5.918;2023-02-08T16:18:39;10.40;41.90
43520;DHT22;46848;51.980;5.918;2023-02-08T16:22:13;10.20;42.40
43520;DHT22;46848;51.980;5.918;2023-02-08T16:24:22;10.20;43.80
43520;DHT22;46848;51.980;5.918;2023-02-08T16:26:59;10.10;43.40
43520;DHT22;46848;51.980;5.918;2023-02-08T16:29:31;10.10;45.00
43520;DHT22;46848;51.980;5.918;2023-02-08T16:32:19;10.00;45.00
43520;DHT22;46848;51.980;5.918;2023-02-08T16:34:46;9.90;45.40
43520;DHT22;46848;51.980;5.918;2023-02-08T16:37:26;9.90;45.60
43520;DHT22;46848;51.980;5.918;2023-02-08T16:42:43;9.70;45.30
43520;DHT22;46848;51.980;5.918;2023-02-08T16:45:14;9.60;45.00
43520;DHT22;46848;51.980;5.918;2023-02-08T16:47:53;9.50;46.20
43520;DHT22;46848;51.980;5.918;2023-02-08T16:50:21;9.50;46.70
43520;DHT22;46848;51.980;5.918;2023-02-08T16:52:51;9.50;46.40
43520;DHT22;46848;51.980;5.918;2023-02-08T16:55:20;9.40;44.60
43520;DHT22;46848;51.980;5.918;2023-02-08T16:57:52;9.30;45.80
43520;DHT22;46848;51.980;5.918;2023-02-08T17:00:21;9.30;46.30
43520;DHT22;46848;51.980;5.918;2023-02-08T17:02:47;9.20;46.80
43520;DHT22;46848;51.980;5.918;2023-02-08T17:05:13;9.10;46.70
43520;DHT22;46848;51.980;5.918;2023-02-08T17:07:39;9.10;45.90
43520;DHT22;46848;51.980;5.918;2023-02-08T17:10:07;9.00;45.90
43520;DHT22;46848;51.980;5.918;2023-02-08T17:12:33;9.00;46.90
43520;DHT22;46848;51.980;5.918;2023-02-08T17:14:58;8.90;47.50
43520;DHT22;46848;51.980;5.918;2023-02-08T17:17:24;9.00;47.00
43520;DHT22;46848;51.980;5.918;2023-02-08T17:19:50;8.90;47.60
43520;DHT22;46848;51.980;5.918;2023-02-08T17:22:16;8.90;48.00
43520;DHT22;46848;51.980;5.918;2023-02-08T17:24:41;8.80;48.00
43520;DHT22;46848;51.980;5.918;2023-02-08T17:27:11;8.80;48.40
43520;DHT22;46848;51.980;5.918;2023-02-08T17:29:38;8.70;48.40
43520;DHT22;46848;51.980;5.918;2023-02-08T17:32:04;8.70;48.20
43520;DHT22;46848;51.980;5.918;2023-02-08T17:34:29;8.70;48.60
43520;DHT22;46848;51.980;5.918;2023-02-08T17:36:55;8.60;48.70
43520;DHT22;46848;51.980;5.918;2023-02-08T17:39:20;8.60;49.40
43520;DHT22;46848;51.980;5.918;2023-02-08T17:41:46;8.50;49.70
43520;DHT22;46848;51.980;5.918;2023-02-08T17:44:11;8.50;50.00
43520;DHT22;46848;51.980;5.918;2023-02-08T17:46:39;8.50;50.20
43520;DHT22;46848;51.980;5.918;2023-02-08T17:49:05;8.50;50.10
43520;DHT22;46848;51.980;5.918;2023-02-08T17:51:31;8.40;50.40
43520;DHT22;46848;51.980;5.918;2023-02-08T17:53:57;8.40;50.50
43520;DHT22;46848;51.980;5.918;2023-02-08T17:56:25;8.30;50.60
43520;DHT22;46848;51.980;5.918;2023-02-08T17:58:53;8.30;50.70
43520;DHT22;46848;51.980;5.918;2023-02-08T18:01:22;8.30;51.10
43520;DHT22;46848;51.980;5.918;2023-02-08T18:03:50;8.20;51.30
43520;DHT22;46848;51.980;5.918;2023-02-08T18:06:16;8.20;51.30
43520;DHT22;46848;51.980;5.918;2023-02-08T18:08:42;8.10;50.90
43520;DHT22;46848;51.980;5.918;2023-02-08T18:11:11;8.10;50.80
43520;DHT22;46848;51.980;5.918;2023-02-08T18:13:38;8.00;50.60